createdAt,value
2022-11-06T00:01:03.338Z,4
2022-11-06T00:03:04.473Z,4
2022-11-06T00:05:05.982Z,4
2022-11-06T00:07:07.099Z,4
2022-11-06T00:11:10.408Z,4
2022-11-06T00:13:11.811Z,4
2022-11-06T00:15:13.069Z,4
2022-11-06T00:17:15.019Z,4
2022-11-06T00:19:16.411Z,4
2022-11-06T00:21:18.241Z,4
2022-11-06T00:23:19.664Z,4
2022-11-06T00:27:23.387Z,4
2022-11-06T00:29:25.018Z,4
2022-11-06T00:31:26.904Z,4
2022-11-06T00:33:28.390Z,4
2022-11-06T00:37:31.738Z,4
2022-11-06T00:39:33.056Z,4
2022-11-06T00:41:34.511Z,4
2022-11-06T00:43:35.617Z,4
2022-11-06T00:45:37.042Z,4
2022-11-06T00:47:38.389Z,3.99
2022-11-06T00:49:39.952Z,4
2022-11-06T00:53:42.371Z,4
2022-11-06T00:55:44.245Z,3.99
2022-11-06T00:57:45.269Z,3.99
2022-11-06T00:59:46.876Z,3.99
2022-11-06T01:01:48.776Z,3.99
2022-11-06T01:03:50.556Z,3.99
2022-11-06T01:05:51.556Z,3.99
2022-11-06T01:09:54.698Z,3.99
2022-11-06T01:12:13.173Z,3.99
2022-11-06T01:13:57.121Z,3.99
2022-11-06T01:15:58.521Z,3.99
2022-11-06T01:20:01.573Z,3.99
2022-11-06T01:22:03.225Z,3.99
2022-11-06T01:24:04.340Z,3.99
2022-11-06T01:26:05.342Z,3.99
2022-11-06T01:30:08.289Z,3.99
2022-11-06T01:32:10.073Z,3.99
2022-11-06T01:34:11.389Z,3.98
2022-11-06T01:36:13.263Z,3.98
2022-11-06T01:38:15.232Z,3.98
2022-11-06T01:42:18.158Z,3.98
2022-11-06T01:44:19.859Z,3.98
2022-11-06T01:46:21.792Z,3.98
2022-11-06T01:48:23.150Z,3.98
2022-11-06T01:52:26.409Z,3.98
2022-11-06T01:54:27.704Z,3.98
2022-11-06T01:58:31.211Z,3.98
2022-11-06T02:00:32.765Z,3.98
2022-11-06T02:02:34.526Z,3.98
2022-11-06T02:04:35.587Z,3.98
2022-11-06T02:08:38.214Z,3.98
2022-11-06T02:10:39.920Z,3.98
2022-11-06T02:12:41.567Z,3.98
2022-11-06T02:14:43.303Z,3.98
2022-11-06T02:16:44.931Z,3.98
2022-11-06T02:18:46.251Z,3.98
2022-11-06T02:20:47.285Z,3.98
2022-11-06T02:24:49.853Z,3.98
2022-11-06T02:26:50.899Z,3.98
2022-11-06T02:28:52.901Z,3.98
2022-11-06T02:30:54.168Z,3.98
2022-11-06T02:34:57.032Z,3.98
2022-11-06T02:36:58.165Z,3.98
2022-11-06T02:41:00.924Z,3.98
2022-11-06T02:43:02.718Z,3.98
2022-11-06T02:45:03.771Z,3.98
2022-11-06T02:47:05.154Z,3.98
2022-11-06T02:51:08.283Z,3.98
2022-11-06T02:53:09.723Z,3.98
2022-11-06T02:55:11.687Z,3.97
2022-11-06T02:57:12.802Z,3.98
2022-11-06T02:59:14.047Z,3.97
2022-11-06T03:01:15.305Z,3.98
2022-11-06T03:03:17.048Z,3.97
2022-11-06T03:07:19.542Z,3.97
2022-11-06T03:09:20.991Z,3.97
2022-11-06T03:11:22.584Z,3.97
2022-11-06T03:13:24.463Z,3.97
2022-11-06T03:17:26.915Z,3.97
2022-11-06T03:19:27.976Z,3.97
2022-11-06T03:21:29.473Z,3.97
2022-11-06T03:23:31.188Z,3.97
2022-11-06T03:25:32.911Z,3.97
2022-11-06T03:27:35.018Z,3.97
2022-11-06T03:29:36.925Z,3.97
2022-11-06T03:33:40.463Z,3.97
2022-11-06T03:35:41.951Z,3.97
2022-11-06T03:37:43.436Z,3.97
2022-11-06T03:39:45.411Z,3.97
2022-11-06T03:41:46.599Z,3.97
2022-11-06T03:43:47.899Z,3.97
2022-11-06T03:45:49.101Z,3.97
2022-11-06T03:49:52.747Z,3.96
2022-11-06T03:51:54.428Z,3.97
2022-11-06T03:53:56.334Z,3.96
2022-11-06T03:55:57.595Z,3.96
2022-11-06T03:59:59.665Z,3.96
2022-11-06T04:02:01.583Z,3.96
2022-11-06T04:06:03.981Z,3.96
2022-11-06T04:08:05.940Z,3.96
2022-11-06T04:10:07.221Z,3.96
2022-11-06T04:12:08.417Z,3.96
2022-11-06T04:16:11.805Z,3.96
2022-11-06T04:18:13.369Z,3.96
2022-11-06T04:20:14.376Z,3.96
2022-11-06T04:22:15.881Z,3.96
2022-11-06T04:24:17.268Z,3.96
2022-11-06T04:26:18.463Z,3.96
2022-11-06T04:28:20.430Z,3.96
2022-11-06T04:32:23.430Z,3.96
2022-11-06T04:34:25.255Z,3.96
2022-11-06T04:36:26.989Z,3.96
2022-11-06T04:38:28.355Z,3.96
2022-11-06T04:40:29.522Z,3.96
2022-11-06T04:42:30.596Z,3.96
2022-11-06T04:44:32.360Z,3.96
2022-11-06T04:48:36.050Z,3.96
2022-11-06T04:50:37.581Z,3.96
2022-11-06T04:52:39.373Z,3.96
2022-11-06T04:54:40.637Z,3.96
2022-11-06T04:58:44.313Z,3.95
2022-11-06T05:00:46.036Z,3.96
2022-11-06T05:02:47.875Z,3.96
2022-11-06T05:03:31.778Z,3.95
2022-11-06T05:05:33.827Z,3.96
2022-11-06T05:09:37.427Z,3.95
2022-11-06T05:11:38.566Z,3.95
2022-11-06T05:13:40.172Z,3.95
2022-11-06T05:15:42.158Z,3.95
2022-11-06T05:17:43.440Z,3.95
2022-11-06T05:19:45.414Z,3.95
2022-11-06T05:21:46.596Z,3.95
2022-11-06T05:25:49.671Z,3.95
2022-11-06T05:27:51.406Z,3.95
2022-11-06T05:29:53.356Z,3.95
2022-11-06T05:31:54.975Z,3.95
2022-11-06T05:35:57.213Z,3.95
2022-11-06T05:37:58.391Z,3.95
2022-11-06T05:42:02.255Z,3.95
2022-11-06T05:44:04.249Z,3.95
2022-11-06T05:46:07.112Z,3.95
2022-11-06T05:48:07.115Z,3.95
2022-11-06T05:52:10.216Z,3.94
2022-11-06T05:54:12.206Z,3.95
2022-11-06T05:56:14.098Z,3.94
2022-11-06T05:58:15.934Z,3.94
2022-11-06T06:00:17.495Z,3.95
2022-11-06T06:02:19.499Z,3.95
2022-11-06T06:04:21.144Z,3.94
2022-11-06T06:08:24.347Z,3.94
2022-11-06T06:10:25.448Z,3.94
2022-11-06T06:12:26.838Z,3.94
2022-11-06T06:14:28.162Z,3.94
2022-11-06T06:16:30.116Z,3.94
2022-11-06T06:18:31.304Z,3.94
2022-11-06T06:20:32.975Z,3.94
2022-11-06T06:24:36.471Z,3.94
2022-11-06T06:26:37.676Z,3.94
2022-11-06T06:28:38.927Z,3.94
2022-11-06T06:30:40.603Z,3.94
2022-11-06T06:34:43.423Z,3.94
2022-11-06T06:36:45.377Z,3.94
2022-11-06T06:38:47.129Z,3.94
2022-11-06T06:40:48.977Z,3.94
2022-11-06T06:42:50.750Z,3.94
2022-11-06T06:44:52.223Z,3.94
2022-11-06T06:46:53.928Z,3.94
2022-11-06T06:50:57.019Z,3.94
2022-11-06T06:52:58.523Z,3.94
2022-11-06T06:55:00.329Z,3.94
2022-11-06T06:57:01.666Z,3.94
2022-11-06T07:01:04.938Z,3.94
2022-11-06T07:03:06.106Z,3.94
2022-11-06T07:07:09.018Z,3.94
2022-11-06T07:09:10.182Z,3.94
2022-11-06T07:11:11.676Z,3.95
2022-11-06T07:13:12.987Z,3.96
2022-11-06T07:17:15.540Z,3.97
2022-11-06T07:19:16.684Z,3.98
2022-11-06T07:23:18.907Z,3.98
2022-11-06T07:25:20.106Z,3.98
2022-11-06T07:29:23.321Z,4.01
2022-11-06T07:33:26.985Z,4.02
2022-11-06T07:35:28.378Z,4.03
2022-11-06T07:37:30.907Z,4.03
2022-11-06T07:39:32.049Z,4.04
2022-11-06T07:43:34.720Z,4.02
2022-11-06T07:45:35.926Z,4.03
2022-11-06T07:47:46.565Z,4.05
2022-11-06T07:49:50.843Z,4.05
2022-11-06T07:51:40.903Z,4.05
2022-11-06T07:53:42.662Z,4.06
2022-11-06T07:55:43.811Z,4.06
2022-11-06T07:59:46.818Z,4.06
2022-11-06T08:01:48.108Z,4.07
2022-11-06T08:05:50.585Z,4.08
2022-11-06T08:07:53.273Z,4.08
2022-11-06T08:09:55.201Z,4.08
2022-11-06T08:11:57.421Z,4.08
2022-11-06T08:15:59.750Z,4.09
2022-11-06T08:18:01.724Z,4.1
2022-11-06T08:20:02.805Z,4.1
2022-11-06T08:22:04.173Z,4.1
2022-11-06T08:26:06.683Z,4.1
2022-11-06T08:28:08.030Z,4.11
2022-11-06T08:30:10.130Z,4.11
2022-11-06T08:32:11.158Z,4.12
2022-11-06T08:34:12.563Z,4.12
2022-11-06T08:36:13.509Z,4.12
2022-11-06T08:38:14.829Z,4.12
2022-11-06T08:42:17.544Z,4.13
2022-11-06T08:44:19.365Z,4.13
2022-11-06T08:46:20.342Z,4.14
2022-11-06T08:48:22.162Z,4.14
2022-11-06T08:50:23.588Z,4.14
2022-11-06T08:52:28.756Z,4.14
2022-11-06T08:54:26.449Z,4.15
2022-11-06T08:58:29.670Z,4.16
2022-11-06T09:00:30.759Z,4.16
2022-11-06T09:02:32.373Z,4.16
2022-11-06T09:04:36.144Z,4.16
2022-11-06T09:06:34.843Z,4.16
2022-11-06T09:08:36.604Z,4.16
2022-11-06T09:10:37.817Z,4.16
2022-11-06T09:14:39.970Z,4.17
2022-11-06T09:16:41.093Z,4.17
2022-11-06T09:18:42.706Z,4.17
2022-11-06T09:22:45.181Z,4.17
2022-11-06T09:25:01.690Z,4.18
2022-11-06T09:26:47.804Z,4.17
2022-11-06T09:28:49.290Z,4.18
2022-11-06T09:30:50.447Z,4.18
2022-11-06T09:32:51.995Z,4.18
2022-11-06T09:34:53.434Z,4.18
2022-11-06T09:36:54.444Z,4.19
2022-11-06T09:38:56.180Z,4.19
2022-11-06T09:42:58.435Z,4.19
2022-11-06T09:47:02.117Z,4.19
2022-11-06T09:49:03.484Z,4.19
2022-11-06T09:51:05.153Z,4.19
2022-11-06T09:55:08.215Z,4.19
2022-11-06T09:57:09.428Z,4.19
2022-11-06T09:59:10.618Z,4.19
2022-11-06T10:01:17.564Z,4.19
2022-11-06T10:03:13.648Z,4.19
2022-11-06T10:07:16.762Z,4.19
2022-11-06T10:09:18.237Z,4.2
2022-11-06T10:11:19.886Z,4.2
2022-11-06T10:13:21.148Z,4.19
2022-11-06T10:17:24.275Z,4.19
2022-11-06T10:19:25.197Z,4.2
2022-11-06T10:23:27.808Z,4.2
2022-11-06T10:25:28.966Z,4.2
2022-11-06T10:29:32.311Z,4.2
2022-11-06T10:31:33.863Z,4.2
2022-11-06T10:33:34.929Z,4.2
2022-11-06T10:35:36.748Z,4.2
2022-11-06T10:39:38.805Z,4.2
2022-11-06T10:41:40.482Z,4.2
2022-11-06T10:43:41.702Z,4.2
2022-11-06T10:45:43.159Z,4.2
2022-11-06T10:49:45.889Z,4.2
2022-11-06T10:51:47.357Z,4.2
2022-11-06T10:53:49.099Z,4.19
2022-11-06T10:55:50.679Z,4.19
2022-11-06T10:57:52.532Z,4.19
2022-11-06T10:59:53.736Z,4.19
2022-11-06T11:01:55.187Z,4.19
2022-11-06T11:05:57.701Z,4.19
2022-11-06T11:07:58.887Z,4.18
2022-11-06T11:10:00.170Z,4.18
2022-11-06T11:12:01.848Z,4.18
2022-11-06T11:14:03.561Z,4.18
2022-11-06T11:16:05.294Z,4.18
2022-11-06T11:18:07.020Z,4.18
2022-11-06T11:22:10.053Z,4.18
2022-11-06T11:24:11.794Z,4.18
2022-11-06T11:26:13.445Z,4.18
2022-11-06T11:28:15.230Z,4.18
2022-11-06T11:32:18.470Z,4.18
2022-11-06T11:34:19.545Z,4.17
2022-11-06T11:38:22.287Z,4.17
2022-11-06T11:40:23.322Z,4.17
2022-11-06T11:42:24.776Z,4.18
2022-11-06T11:44:26.631Z,4.17
2022-11-06T11:48:30.014Z,4.17
2022-11-06T11:49:13.799Z,4.17
2022-11-06T11:51:14.810Z,4.17
2022-11-06T11:53:16.682Z,4.17
2022-11-06T11:55:18.016Z,4.17
2022-11-06T11:59:21.425Z,4.17
2022-11-06T12:01:22.913Z,4.17
2022-11-06T12:05:24.740Z,4.17
2022-11-06T12:07:25.769Z,4.17
2022-11-06T12:09:26.960Z,4.17
2022-11-06T12:11:27.908Z,4.17
2022-11-06T12:15:30.090Z,4.17
2022-11-06T12:17:31.873Z,4.17
2022-11-06T12:19:33.043Z,4.17
2022-11-06T12:21:34.388Z,4.17
2022-11-06T12:25:37.195Z,4.17
2022-11-06T12:27:38.785Z,4.17
2022-11-06T12:31:40.790Z,4.17
2022-11-06T12:34:05.376Z,4.17
2022-11-06T12:35:44.191Z,4.16
2022-11-06T12:37:45.487Z,4.16
2022-11-06T12:41:48.737Z,4.16
2022-11-06T12:43:50.422Z,4.16
2022-11-06T12:45:52.032Z,4.16
2022-11-06T12:47:53.508Z,4.16
2022-11-06T12:49:54.938Z,4.16
2022-11-06T12:51:56.798Z,4.16
2022-11-06T12:53:58.520Z,4.17
2022-11-06T12:58:01.694Z,4.16
2022-11-06T13:00:03.588Z,4.16
2022-11-06T13:02:05.346Z,4.16
2022-11-06T13:04:06.308Z,4.16
2022-11-06T13:08:09.259Z,4.16
2022-11-06T13:10:10.648Z,4.16
2022-11-06T13:12:11.666Z,4.16
2022-11-06T13:14:12.732Z,4.16
2022-11-06T13:16:14.274Z,4.16
2022-11-06T13:18:15.855Z,4.16
2022-11-06T13:20:17.088Z,4.16
2022-11-06T13:24:20.775Z,4.15
2022-11-06T13:26:22.541Z,4.16
2022-11-06T13:28:23.966Z,4.16
2022-11-06T13:30:25.502Z,4.16
2022-11-06T13:32:27.243Z,4.15
2022-11-06T13:34:28.703Z,4.16
2022-11-06T13:36:30.596Z,4.16
2022-11-06T13:40:33.175Z,4.16
2022-11-06T13:42:34.535Z,4.16
2022-11-06T13:44:35.789Z,4.15
2022-11-06T13:46:37.384Z,4.16
2022-11-06T13:50:40.887Z,4.15
2022-11-06T13:52:42.557Z,4.15
2022-11-06T13:54:43.715Z,4.15
2022-11-06T13:56:45.044Z,4.16
2022-11-06T13:58:46.297Z,4.15
2022-11-06T14:00:48.016Z,4.15
2022-11-06T14:02:49.232Z,4.15
2022-11-06T14:06:52.005Z,4.15
2022-11-06T14:08:53.610Z,4.15
2022-11-06T14:10:54.751Z,4.15
2022-11-06T14:12:55.769Z,4.15
2022-11-06T14:14:57.140Z,4.15
2022-11-06T14:16:58.477Z,4.16
2022-11-06T14:19:00.266Z,4.16
2022-11-06T14:23:02.950Z,4.15
2022-11-06T14:25:04.738Z,4.15
2022-11-06T14:27:06.056Z,4.15
2022-11-06T14:29:07.890Z,4.16
2022-11-06T14:33:10.927Z,4.15
2022-11-06T14:35:12.737Z,4.15
2022-11-06T14:39:16.291Z,4.15
2022-11-06T14:41:17.405Z,4.15
2022-11-06T14:43:18.649Z,4.14
2022-11-06T14:45:19.991Z,4.14
2022-11-06T14:49:22.068Z,4.15
2022-11-06T14:51:23.811Z,4.14
2022-11-06T14:53:25.392Z,4.14
2022-11-06T14:55:27.039Z,4.14
2022-11-06T14:57:28.774Z,4.14
2022-11-06T14:59:30.353Z,4.14
2022-11-06T15:01:31.771Z,4.14
2022-11-06T15:05:37.532Z,4.14
2022-11-06T15:08:03.016Z,4.14
2022-11-06T15:09:37.215Z,4.14
2022-11-06T15:11:39.829Z,4.14
2022-11-06T15:13:39.687Z,4.14
2022-11-06T15:15:40.718Z,4.14
2022-11-06T15:17:41.771Z,4.14
2022-11-06T15:21:45.375Z,4.14
2022-11-06T15:23:46.346Z,4.14
2022-11-06T15:25:47.434Z,4.14
2022-11-06T15:27:49.318Z,4.14
2022-11-06T15:31:52.281Z,4.14
2022-11-06T15:33:55.814Z,4.14
2022-11-06T15:37:57.268Z,4.14
2022-11-06T15:40:01.167Z,4.14
2022-11-06T15:42:00.230Z,4.14
2022-11-06T15:44:01.587Z,4.14
2022-11-06T15:48:04.364Z,4.14
2022-11-06T15:50:05.492Z,4.13
2022-11-06T15:52:06.946Z,4.13
2022-11-06T15:54:08.566Z,4.13
2022-11-06T15:56:09.602Z,4.13
2022-11-06T15:58:11.056Z,4.14
2022-11-06T16:00:12.685Z,4.14
2022-11-06T16:04:16.216Z,4.13
2022-11-06T16:06:17.724Z,4.13
2022-11-06T16:08:19.104Z,4.13
2022-11-06T16:10:20.256Z,4.13
2022-11-06T16:14:23.148Z,4.13
2022-11-06T16:16:25.081Z,4.13
2022-11-06T16:18:26.606Z,4.13
2022-11-06T16:20:27.902Z,4.13
2022-11-06T16:22:29.327Z,4.13
2022-11-06T16:24:30.596Z,4.13
2022-11-06T16:26:32.524Z,4.13
2022-11-06T16:30:35.302Z,4.13
2022-11-06T16:32:37.159Z,4.13
2022-11-06T16:36:40.654Z,4.13
2022-11-06T16:38:42.729Z,4.13
2022-11-06T16:40:43.706Z,4.12
2022-11-06T16:42:45.350Z,4.13
2022-11-06T16:46:48.296Z,4.12
2022-11-06T16:48:49.621Z,4.12
2022-11-06T16:50:51.051Z,4.12
2022-11-06T16:52:52.521Z,4.12
2022-11-06T16:56:54.713Z,4.12
2022-11-06T16:58:56.482Z,4.12
2022-11-06T17:00:58.383Z,4.12
2022-11-06T17:02:59.428Z,4.12
2022-11-06T17:05:01.238Z,4.12
2022-11-06T17:07:02.537Z,4.12
2022-11-06T17:09:09.035Z,4.12
2022-11-06T17:13:06.784Z,4.12
2022-11-06T17:15:08.594Z,4.12
2022-11-06T17:17:09.669Z,4.12
2022-11-06T17:19:10.952Z,4.12
2022-11-06T17:21:12.615Z,4.12
2022-11-06T17:23:16.182Z,4.12
2022-11-06T17:25:15.430Z,4.12
2022-11-06T17:29:21.919Z,4.12
2022-11-06T17:31:18.939Z,4.12
2022-11-06T17:33:20.577Z,4.12
2022-11-06T17:35:22.302Z,4.12
2022-11-06T17:37:23.918Z,4.12
2022-11-06T17:39:25.658Z,4.12
2022-11-06T17:41:27.466Z,4.12
2022-11-06T17:45:30.116Z,4.11
2022-11-06T17:47:31.368Z,4.11
2022-11-06T17:49:33.047Z,4.12
2022-11-06T17:51:34.400Z,4.11
2022-11-06T17:55:38.094Z,4.11
2022-11-06T17:57:39.170Z,4.11
2022-11-06T17:59:41.086Z,4.11
2022-11-06T18:01:42.804Z,4.11
2022-11-06T18:03:43.942Z,4.11
2022-11-06T18:05:45.236Z,4.11
2022-11-06T18:07:46.775Z,4.11
2022-11-06T18:11:49.446Z,4.11
2022-11-06T18:13:50.421Z,4.11
2022-11-06T18:15:51.749Z,4.11
2022-11-06T18:17:52.779Z,4.11
2022-11-06T18:19:53.903Z,4.11
2022-11-06T18:21:55.635Z,4.11
2022-11-06T18:23:57.311Z,4.11
2022-11-06T18:28:03.580Z,4.11
2022-11-06T18:30:01.555Z,4.11
2022-11-06T18:32:02.942Z,4.11
2022-11-06T18:34:04.087Z,4.1
2022-11-06T18:34:47.944Z,4.11
2022-11-06T18:36:49.302Z,4.1
2022-11-06T18:38:50.625Z,4.1
2022-11-06T18:40:52.567Z,4.11
2022-11-06T18:42:54.132Z,4.11
2022-11-06T18:45:03.563Z,4.1
2022-11-06T18:46:56.833Z,4.1
2022-11-06T18:48:58.254Z,4.1
2022-11-06T18:50:59.548Z,4.1
2022-11-06T18:53:01.381Z,4.1
2022-11-06T18:55:03.130Z,4.1
2022-11-06T18:57:04.980Z,4.1
2022-11-06T18:59:05.948Z,4.1
2022-11-06T19:01:07.613Z,4.1
2022-11-06T19:05:10.330Z,4.1
2022-11-06T19:07:11.877Z,4.1
2022-11-06T19:09:13.174Z,4.1
2022-11-06T19:11:14.436Z,4.1
2022-11-06T19:15:17.218Z,4.1
2022-11-06T19:17:18.842Z,4.1
2022-11-06T19:21:21.304Z,4.1
2022-11-06T19:23:22.349Z,4.1
2022-11-06T19:25:23.741Z,4.1
2022-11-06T19:27:25.338Z,4.1
2022-11-06T19:29:26.743Z,4.1
2022-11-06T19:31:28.315Z,4.1
2022-11-06T19:33:29.558Z,4.1
2022-11-06T19:37:32.445Z,4.1
2022-11-06T19:39:34.379Z,4.1
2022-11-06T19:43:36.807Z,4.1
2022-11-06T19:45:38.664Z,4.1
2022-11-06T19:47:40.083Z,4.1
2022-11-06T19:49:41.886Z,4.09
2022-11-06T19:53:44.519Z,4.1
2022-11-06T19:55:45.551Z,4.09
2022-11-06T19:57:47.259Z,4.1
2022-11-06T19:59:48.663Z,4.09
2022-11-06T20:03:51.701Z,4.09
2022-11-06T20:05:52.870Z,4.09
2022-11-06T20:09:55.731Z,4.09
2022-11-06T20:11:57.312Z,4.09
2022-11-06T20:13:58.616Z,4.09
2022-11-06T20:15:59.748Z,4.09
2022-11-06T20:20:03.009Z,4.09
2022-11-06T20:22:04.199Z,4.09
2022-11-06T20:24:06.010Z,4.09
2022-11-06T20:26:07.457Z,4.09
2022-11-06T20:28:08.663Z,4.09
2022-11-06T20:30:10.204Z,4.09
2022-11-06T20:32:13.661Z,4.09
2022-11-06T20:36:14.215Z,4.09
2022-11-06T20:38:15.572Z,4.08
2022-11-06T20:40:16.533Z,4.09
2022-11-06T20:42:17.843Z,4.09
2022-11-06T20:44:19.583Z,4.09
2022-11-06T20:46:20.902Z,4.08
2022-11-06T20:48:22.223Z,4.08
2022-11-06T20:52:25.021Z,4.08
2022-11-06T20:54:26.650Z,4.08
2022-11-06T20:56:28.031Z,4.08
2022-11-06T20:58:29.639Z,4.08
2022-11-06T21:02:32.998Z,4.08
2022-11-06T21:04:34.248Z,4.08
2022-11-06T21:08:36.724Z,4.08
2022-11-06T21:10:37.851Z,4.08
2022-11-06T21:12:39.176Z,4.08
2022-11-06T21:14:40.189Z,4.08
2022-11-06T21:18:42.890Z,4.08
2022-11-06T21:20:44.210Z,4.08
2022-11-06T21:22:45.653Z,4.08
2022-11-06T21:24:46.844Z,4.08
2022-11-06T21:26:47.767Z,4.08
2022-11-06T21:28:49.028Z,4.08
2022-11-06T21:30:50.802Z,4.08
2022-11-06T21:34:54.085Z,4.08
2022-11-06T21:36:58.248Z,4.08
2022-11-06T21:38:57.065Z,4.08
2022-11-06T21:40:58.391Z,4.08
2022-11-06T21:45:00.886Z,4.08
2022-11-06T21:47:02.787Z,4.08
2022-11-06T21:49:03.910Z,4.08
2022-11-06T21:51:05.737Z,4.08
2022-11-06T21:53:07.291Z,4.08
2022-11-06T21:55:09.274Z,4.07
2022-11-06T21:57:10.624Z,4.08
2022-11-06T22:01:13.267Z,4.07
2022-11-06T22:03:14.877Z,4.08
2022-11-06T22:07:17.077Z,4.07
2022-11-06T22:09:22.095Z,4.07
2022-11-06T22:11:20.086Z,4.07
2022-11-06T22:13:21.652Z,4.07
2022-11-06T22:17:24.368Z,4.07
2022-11-06T22:19:26.234Z,4.07
2022-11-06T22:21:27.510Z,4.07
2022-11-06T22:23:29.272Z,4.07
2022-11-06T22:27:33.770Z,4.07
2022-11-06T22:29:33.813Z,4.07
2022-11-06T22:31:35.845Z,4.07
2022-11-06T22:33:36.919Z,4.07
2022-11-06T22:35:38.226Z,4.07
2022-11-06T22:37:39.385Z,4.07
2022-11-06T22:39:40.641Z,4.07
2022-11-06T22:43:42.781Z,4.07
2022-11-06T22:45:44.681Z,4.07
2022-11-06T22:47:46.131Z,4.06
2022-11-06T22:49:47.361Z,4.06
2022-11-06T22:51:48.701Z,4.07
2022-11-06T22:53:49.888Z,4.06
2022-11-06T22:55:51.399Z,4.07
2022-11-06T22:59:54.111Z,4.06
2022-11-06T23:01:55.799Z,4.06
2022-11-06T23:03:57.245Z,4.06
2022-11-06T23:05:58.965Z,4.06
2022-11-06T23:08:00.248Z,4.06
2022-11-06T23:10:01.686Z,4.06
2022-11-06T23:12:03.571Z,4.06
2022-11-06T23:16:06.649Z,4.06
2022-11-06T23:18:08.500Z,4.06
2022-11-06T23:20:09.767Z,4.06
2022-11-06T23:22:10.926Z,4.06
2022-11-06T23:26:14.172Z,4.06
2022-11-06T23:28:15.337Z,4.06
2022-11-06T23:32:18.380Z,4.06
2022-11-06T23:34:19.547Z,4.06
2022-11-06T23:36:21.462Z,4.06
2022-11-06T23:38:22.760Z,4.06
2022-11-06T23:42:26.231Z,4.06
2022-11-06T23:44:28.006Z,4.06
2022-11-06T23:46:29.751Z,4.06
2022-11-06T23:48:31.618Z,4.06
2022-11-06T23:50:33.021Z,4.06
2022-11-06T23:52:33.990Z,4.06
2022-11-06T23:54:35.622Z,4.06
2022-11-06T23:58:38.188Z,4.06
